createdAt,value
2022-12-20T00:00:48.399Z,31.34
2022-12-20T00:03:24.694Z,31.63
2022-12-20T00:06:03.197Z,31.61
2022-12-20T00:08:37.019Z,32.26
2022-12-20T00:11:12.818Z,32.27
2022-12-20T00:13:53.309Z,33.00
2022-12-20T00:16:36.363Z,32.87
2022-12-20T00:19:10.445Z,33.06
2022-12-20T00:21:48.430Z,33.30
2022-12-20T00:24:26.115Z,33.02
2022-12-20T00:27:02.510Z,33.09
2022-12-20T00:29:36.093Z,33.07
2022-12-20T00:32:16.952Z,33.53
2022-12-20T00:34:46.804Z,33.41
2022-12-20T00:37:20.176Z,33.62
2022-12-20T00:39:47.844Z,33.66
2022-12-20T00:42:21.375Z,33.65
2022-12-20T00:44:56.586Z,33.48
2022-12-20T00:47:35.022Z,33.58
2022-12-20T00:50:11.609Z,33.81
2022-12-20T00:52:43.822Z,33.46
2022-12-20T00:55:20.151Z,33.89
2022-12-20T00:57:56.939Z,33.72
2022-12-20T01:00:29.082Z,34.09
2022-12-20T01:03:02.810Z,34.08
2022-12-20T01:05:41.709Z,33.88
2022-12-20T01:08:17.162Z,33.56
2022-12-20T01:11:22.731Z,34.00
2022-12-20T01:14:03.537Z,33.83
2022-12-20T01:16:45.011Z,34.06
2022-12-20T01:19:26.338Z,34.04
2022-12-20T01:22:02.573Z,34.05
2022-12-20T01:24:42.169Z,34.14
2022-12-20T01:27:15.669Z,33.79
2022-12-20T01:29:51.610Z,33.77
2022-12-20T01:32:26.707Z,33.74
2022-12-20T01:35:02.607Z,33.99
2022-12-20T01:37:39.585Z,33.78
2022-12-20T01:40:10.603Z,34.22
2022-12-20T01:42:46.090Z,34.38
2022-12-20T01:45:32.853Z,34.19
2022-12-20T01:48:01.674Z,34.18
2022-12-20T01:50:38.688Z,33.86
2022-12-20T01:53:11.546Z,34.03
2022-12-20T01:55:50.886Z,33.97
2022-12-20T01:58:27.173Z,34.09
2022-12-20T02:01:12.142Z,34.05
2022-12-20T02:03:49.264Z,34.12
2022-12-20T02:06:27.984Z,34.01
2022-12-20T02:09:04.899Z,33.89
2022-12-20T02:12:13.003Z,33.56
2022-12-20T02:15:17.510Z,33.41
2022-12-20T02:18:24.008Z,33.30
2022-12-20T02:21:14.012Z,33.34
2022-12-20T02:24:01.731Z,32.94
2022-12-20T02:26:57.007Z,32.78
2022-12-20T02:29:38.621Z,32.87
2022-12-20T02:32:26.491Z,32.69
2022-12-20T02:34:59.840Z,31.93
2022-12-20T02:37:32.680Z,32.02
2022-12-20T02:40:11.631Z,31.92
2022-12-20T02:42:45.835Z,31.95
2022-12-20T02:45:23.186Z,31.73
2022-12-20T02:48:26.211Z,31.87
2022-12-20T02:51:00.443Z,31.89
2022-12-20T02:53:31.564Z,31.82
2022-12-20T02:56:05.333Z,31.54
2022-12-20T02:59:09.222Z,31.57
2022-12-20T03:01:48.597Z,31.39
2022-12-20T03:04:27.348Z,31.94
2022-12-20T03:07:16.570Z,31.95
2022-12-20T03:10:04.203Z,32.07
2022-12-20T03:12:36.997Z,32.02
2022-12-20T03:15:18.868Z,31.39
2022-12-20T03:17:55.350Z,31.22
2022-12-20T03:20:35.466Z,31.25
2022-12-20T03:23:17.078Z,31.55
2022-12-20T03:25:54.948Z,32.12
2022-12-20T03:28:41.050Z,32.22
2022-12-20T03:31:17.057Z,32.55
2022-12-20T03:34:01.033Z,32.65
2022-12-20T03:36:31.841Z,32.69
2022-12-20T03:39:13.949Z,32.95
2022-12-20T03:41:52.800Z,32.93
2022-12-20T03:44:25.404Z,33.24
2022-12-20T03:46:58.861Z,33.44
2022-12-20T03:49:34.484Z,33.35
2022-12-20T03:52:07.692Z,33.50
2022-12-20T03:54:41.404Z,33.79
2022-12-20T03:57:20.093Z,33.48
2022-12-20T03:59:55.341Z,33.50
2022-12-20T04:02:31.965Z,33.41
2022-12-20T04:05:06.141Z,33.84
2022-12-20T04:07:45.593Z,33.77
2022-12-20T04:10:27.029Z,34.21
2022-12-20T04:13:02.683Z,34.18
2022-12-20T04:15:47.731Z,34.06
2022-12-20T04:18:22.647Z,34.06
2022-12-20T04:20:58.026Z,33.86
2022-12-20T04:23:39.799Z,34.14
2022-12-20T04:26:23.117Z,33.75
2022-12-20T04:29:07.148Z,33.96
2022-12-20T04:31:40.466Z,33.93
2022-12-20T04:34:13.865Z,33.82
2022-12-20T04:36:49.117Z,34.27
2022-12-20T04:39:32.027Z,33.91
2022-12-20T04:42:26.517Z,33.88
2022-12-20T04:45:04.522Z,33.70
2022-12-20T04:47:39.981Z,34.01
2022-12-20T04:50:16.928Z,33.83
2022-12-20T04:53:06.186Z,33.79
2022-12-20T04:55:45.636Z,33.99
2022-12-20T04:58:23.886Z,34.28
2022-12-20T05:00:54.671Z,34.04
2022-12-20T05:03:31.078Z,33.90
2022-12-20T05:06:08.144Z,34.24
2022-12-20T05:08:43.610Z,33.94
2022-12-20T05:11:16.946Z,34.07
2022-12-20T05:13:50.169Z,34.32
2022-12-20T05:16:26.100Z,34.21
2022-12-20T05:19:03.380Z,33.91
2022-12-20T05:22:00.699Z,33.97
2022-12-20T05:24:54.506Z,33.89
2022-12-20T05:27:37.789Z,34.08
2022-12-20T05:30:11.186Z,33.76
2022-12-20T05:32:43.480Z,34.08
2022-12-20T05:35:21.867Z,33.87
2022-12-20T05:38:03.893Z,34.28
2022-12-20T05:40:39.165Z,33.82
2022-12-20T05:43:20.873Z,33.95
2022-12-20T05:45:56.043Z,33.95
2022-12-20T05:48:44.632Z,33.87
2022-12-20T05:51:25.955Z,34.03
2022-12-20T05:54:03.255Z,33.81
2022-12-20T05:57:02.612Z,34.09
2022-12-20T05:59:44.784Z,33.85
2022-12-20T06:02:33.304Z,33.68
2022-12-20T06:05:17.000Z,33.71
2022-12-20T06:07:53.511Z,33.57
2022-12-20T06:10:35.138Z,33.69
2022-12-20T06:13:12.567Z,33.64
2022-12-20T06:15:46.547Z,33.75
2022-12-20T06:18:28.176Z,34.08
2022-12-20T06:21:12.273Z,34.22
2022-12-20T06:23:48.004Z,34.40
2022-12-20T06:26:35.923Z,33.71
2022-12-20T06:29:14.643Z,33.92
2022-12-20T06:31:58.523Z,33.79
2022-12-20T06:34:33.301Z,33.82
2022-12-20T06:37:03.934Z,34.05
2022-12-20T06:39:46.140Z,33.75
2022-12-20T06:42:25.602Z,34.18
2022-12-20T06:45:06.230Z,33.80
2022-12-20T06:47:45.908Z,34.05
2022-12-20T06:50:23.980Z,34.06
2022-12-20T06:52:54.238Z,34.02
2022-12-20T06:55:29.849Z,33.78
2022-12-20T06:58:03.116Z,33.86
2022-12-20T07:00:35.697Z,33.93
2022-12-20T07:03:08.533Z,34.09
2022-12-20T07:05:39.466Z,33.90
2022-12-20T07:08:11.919Z,34.12
2022-12-20T07:10:42.197Z,33.85
2022-12-20T07:13:12.503Z,32.69
2022-12-20T07:15:44.500Z,30.91
2022-12-20T07:18:14.827Z,28.04
2022-12-20T07:20:43.289Z,26.35
2022-12-20T07:23:16.523Z,24.74
2022-12-20T07:25:44.983Z,23.97
2022-12-20T07:28:16.686Z,23.20
2022-12-20T07:30:48.382Z,22.88
2022-12-20T07:33:16.139Z,22.37
2022-12-20T07:35:54.708Z,21.19
2022-12-20T07:38:22.571Z,21.43
2022-12-20T07:40:54.176Z,21.06
2022-12-20T07:43:26.378Z,20.79
2022-12-20T07:45:58.861Z,21.30
2022-12-20T07:48:26.810Z,21.42
2022-12-20T07:51:00.684Z,20.83
2022-12-20T07:53:40.055Z,20.68
2022-12-20T07:56:14.981Z,19.82
2022-12-20T07:58:49.988Z,21.04
2022-12-20T08:01:30.620Z,20.61
2022-12-20T08:04:15.778Z,21.39
2022-12-20T08:06:50.923Z,20.98
2022-12-20T08:09:21.339Z,21.59
2022-12-20T08:11:58.411Z,22.30
2022-12-20T08:14:29.433Z,21.45
2022-12-20T08:17:00.703Z,21.69
2022-12-20T08:19:36.740Z,20.84
2022-12-20T08:22:08.709Z,20.84
2022-12-20T08:24:47.781Z,21.05
2022-12-20T08:27:21.585Z,21.36
2022-12-20T08:29:55.266Z,20.68
2022-12-20T08:32:23.042Z,20.27
2022-12-20T08:34:56.978Z,20.42
2022-12-20T08:37:24.660Z,21.67
2022-12-20T08:39:55.253Z,21.39
2022-12-20T08:42:32.281Z,21.21
2022-12-20T08:45:02.999Z,21.75
2022-12-20T08:47:39.874Z,22.18
2022-12-20T08:50:11.279Z,22.00
2022-12-20T08:52:42.071Z,22.01
2022-12-20T08:55:13.023Z,22.17
2022-12-20T08:57:47.151Z,21.29
2022-12-20T09:00:18.552Z,20.55
2022-12-20T09:02:55.204Z,22.48
2022-12-20T09:05:30.913Z,23.02
2022-12-20T09:07:59.972Z,23.13
2022-12-20T09:10:30.723Z,22.18
2022-12-20T09:12:58.659Z,23.55
2022-12-20T09:15:32.043Z,24.03
2022-12-20T09:18:03.345Z,23.09
2022-12-20T09:20:34.959Z,22.99
2022-12-20T09:23:10.148Z,22.45
2022-12-20T09:25:40.212Z,22.42
2022-12-20T09:28:10.465Z,23.71
2022-12-20T09:30:43.383Z,23.02
2022-12-20T09:33:14.743Z,24.34
2022-12-20T09:35:50.296Z,22.46
2022-12-20T09:38:24.596Z,21.15
2022-12-20T09:41:03.497Z,22.32
2022-12-20T09:43:42.081Z,22.64
2022-12-20T09:46:15.714Z,23.14
2022-12-20T09:48:45.544Z,23.83
2022-12-20T09:51:40.053Z,22.71
2022-12-20T09:55:05.760Z,22.31
2022-12-20T09:57:58.379Z,22.17
2022-12-20T10:00:26.574Z,23.45
2022-12-20T10:03:06.512Z,21.53
2022-12-20T10:05:55.608Z,21.80
2022-12-20T10:08:38.275Z,21.67
2022-12-20T10:11:50.954Z,22.28
2022-12-20T10:14:40.608Z,21.75
2022-12-20T10:17:21.290Z,23.07
2022-12-20T10:20:05.324Z,21.21
2022-12-20T10:23:03.679Z,22.25
2022-12-20T10:25:38.658Z,20.80
2022-12-20T10:28:16.406Z,21.33
2022-12-20T10:30:47.535Z,22.58
2022-12-20T10:33:27.991Z,21.58
2022-12-20T10:36:27.209Z,20.83
2022-12-20T10:39:11.082Z,22.12
2022-12-20T10:41:47.661Z,22.89
2022-12-20T10:44:24.968Z,23.52
2022-12-20T10:46:59.556Z,24.45
2022-12-20T10:49:41.261Z,24.52
2022-12-20T10:52:18.577Z,23.97
2022-12-20T10:54:52.723Z,23.93
2022-12-20T10:57:33.770Z,25.00
2022-12-20T11:00:12.331Z,25.07
2022-12-20T11:02:42.948Z,25.64
2022-12-20T11:05:14.851Z,26.02
2022-12-20T11:10:54.423Z,28.63
2022-12-20T11:13:31.877Z,29.58
2022-12-20T11:16:03.237Z,30.64
2022-12-20T11:18:49.630Z,31.86
2022-12-20T11:21:34.442Z,31.93
2022-12-20T11:24:11.827Z,31.95
2022-12-20T11:26:58.276Z,32.31
2022-12-20T11:30:03.860Z,32.82
2022-12-20T11:32:40.580Z,32.96
2022-12-20T11:35:34.823Z,33.18
2022-12-20T11:38:23.587Z,33.58
2022-12-20T11:41:11.022Z,33.55
2022-12-20T11:44:24.470Z,33.83
2022-12-20T11:47:01.867Z,33.97
2022-12-20T11:50:03.074Z,34.30
2022-12-20T11:52:43.610Z,34.49
2022-12-20T11:55:25.242Z,34.34
2022-12-20T11:58:20.598Z,34.30
2022-12-20T12:01:06.342Z,34.34
2022-12-20T12:03:49.025Z,34.66
2022-12-20T12:06:30.187Z,34.25
2022-12-20T12:09:19.466Z,34.21
2022-12-20T12:12:06.596Z,34.37
2022-12-20T12:15:05.358Z,34.52
2022-12-20T12:17:46.231Z,34.47
2022-12-20T12:20:26.422Z,34.39
2022-12-20T12:23:03.280Z,34.40
2022-12-20T12:25:32.485Z,34.63
2022-12-20T12:28:05.431Z,34.45
2022-12-20T12:30:47.181Z,34.43
2022-12-20T12:33:38.179Z,34.78
2022-12-20T12:36:30.905Z,34.58
2022-12-20T12:39:27.127Z,34.59
2022-12-20T12:42:16.078Z,34.51
2022-12-20T12:45:20.201Z,34.60
2022-12-20T12:48:16.671Z,34.50
2022-12-20T12:51:00.868Z,34.56
2022-12-20T12:53:45.077Z,34.51
2022-12-20T12:56:46.479Z,34.55
2022-12-20T12:59:46.273Z,34.71
2022-12-20T13:02:21.107Z,34.42
2022-12-20T13:05:06.966Z,34.67
2022-12-20T13:07:40.055Z,34.60
2022-12-20T13:10:14.720Z,34.83
2022-12-20T13:12:47.490Z,34.62
2022-12-20T13:15:23.659Z,34.87
2022-12-20T13:18:20.381Z,34.65
2022-12-20T13:21:33.371Z,34.72
2022-12-20T13:24:40.893Z,34.93
2022-12-20T13:27:33.680Z,34.83
2022-12-20T13:30:13.162Z,34.89
2022-12-20T13:32:57.967Z,34.86
2022-12-20T13:35:44.564Z,34.94
2022-12-20T13:38:15.190Z,34.95
2022-12-20T13:40:59.083Z,35.20
2022-12-20T13:43:45.931Z,35.47
2022-12-20T13:46:26.346Z,35.00
2022-12-20T13:49:01.084Z,35.23
2022-12-20T13:51:35.352Z,35.01
2022-12-20T13:54:26.819Z,35.04
2022-12-20T13:56:59.711Z,35.17
2022-12-20T13:59:35.805Z,35.21
2022-12-20T14:02:25.179Z,35.17
2022-12-20T14:05:14.037Z,35.32
2022-12-20T14:07:47.839Z,34.64
2022-12-20T14:10:26.659Z,34.39
2022-12-20T14:12:55.690Z,33.95
2022-12-20T14:15:31.323Z,33.71
2022-12-20T14:18:28.797Z,33.58
2022-12-20T14:21:08.679Z,33.25
2022-12-20T14:23:51.019Z,33.02
2022-12-20T14:26:48.265Z,32.19
2022-12-20T14:29:30.537Z,31.94
2022-12-20T14:32:03.473Z,32.14
2022-12-20T14:34:41.958Z,32.32
2022-12-20T14:37:33.866Z,32.67
2022-12-20T14:40:19.345Z,33.14
2022-12-20T14:42:58.516Z,33.20
2022-12-20T14:45:30.843Z,33.50
2022-12-20T14:48:07.611Z,33.85
2022-12-20T14:50:45.313Z,34.09
2022-12-20T14:53:24.876Z,34.11
2022-12-20T14:55:56.121Z,34.35
2022-12-20T14:58:36.016Z,34.42
2022-12-20T15:01:19.503Z,34.69
2022-12-20T15:03:52.969Z,34.87
2022-12-20T15:06:45.162Z,35.05
2022-12-20T15:09:23.419Z,34.50
2022-12-20T15:12:02.270Z,34.54
2022-12-20T15:14:39.904Z,34.38
2022-12-20T15:17:12.683Z,34.50
2022-12-20T15:19:42.764Z,34.32
2022-12-20T15:22:25.605Z,34.46
2022-12-20T15:25:03.342Z,34.59
2022-12-20T15:27:33.776Z,34.54
2022-12-20T15:30:11.528Z,34.76
2022-12-20T15:32:55.170Z,34.69
2022-12-20T15:35:31.146Z,34.63
2022-12-20T15:38:07.184Z,34.86
2022-12-20T15:40:40.250Z,34.77
2022-12-20T15:43:25.998Z,34.71
2022-12-20T15:45:58.805Z,34.86
2022-12-20T15:48:27.655Z,34.90
2022-12-20T15:51:20.444Z,35.14
2022-12-20T15:53:51.140Z,34.94
2022-12-20T15:56:29.395Z,35.13
2022-12-20T15:59:17.800Z,34.91
2022-12-20T16:02:05.745Z,34.63
2022-12-20T16:04:41.075Z,34.88
2022-12-20T16:07:18.126Z,35.21
2022-12-20T16:09:51.271Z,35.22
2022-12-20T16:12:40.365Z,35.01
2022-12-20T16:15:29.070Z,33.94
2022-12-20T16:18:00.193Z,32.88
2022-12-20T16:20:34.447Z,32.41
2022-12-20T16:23:08.345Z,32.10
2022-12-20T16:25:39.203Z,32.10
2022-12-20T16:28:11.031Z,31.91
2022-12-20T16:30:43.443Z,32.67
2022-12-20T16:33:25.158Z,32.90
2022-12-20T16:35:58.425Z,33.71
2022-12-20T16:38:29.392Z,34.04
2022-12-20T16:41:15.080Z,34.05
2022-12-20T16:43:47.061Z,34.17
2022-12-20T16:46:23.471Z,34.33
2022-12-20T16:48:51.369Z,34.14
2022-12-20T16:51:29.772Z,34.59
2022-12-20T16:54:21.761Z,34.95
2022-12-20T16:56:58.064Z,35.11
2022-12-20T16:59:26.453Z,34.88
2022-12-20T17:01:57.578Z,35.09
2022-12-20T17:04:31.778Z,35.12
2022-12-20T17:07:13.992Z,35.09
2022-12-20T17:09:56.323Z,35.57
2022-12-20T17:12:36.273Z,35.16
2022-12-20T17:15:09.120Z,35.30
2022-12-20T17:17:51.573Z,35.32
2022-12-20T17:20:31.086Z,35.21
2022-12-20T17:23:17.234Z,35.43
2022-12-20T17:25:56.704Z,35.30
2022-12-20T17:28:33.363Z,35.21
2022-12-20T17:31:17.723Z,35.35
2022-12-20T17:33:55.683Z,35.48
2022-12-20T17:36:29.755Z,35.50
2022-12-20T17:39:09.452Z,35.42
2022-12-20T17:41:44.921Z,35.28
2022-12-20T17:44:25.220Z,35.47
2022-12-20T17:47:03.983Z,35.58
2022-12-20T17:49:51.046Z,35.37
2022-12-20T17:52:34.409Z,35.96
2022-12-20T17:55:09.403Z,35.47
2022-12-20T17:57:45.996Z,35.23
2022-12-20T18:00:39.217Z,35.31
2022-12-20T18:04:02.434Z,35.43
2022-12-20T18:06:29.778Z,35.18
2022-12-20T18:09:03.657Z,35.24
2022-12-20T18:11:39.807Z,35.14
2022-12-20T18:14:18.183Z,35.11
2022-12-20T18:16:50.904Z,35.34
2022-12-20T18:19:27.142Z,35.36
2022-12-20T18:22:00.151Z,35.21
2022-12-20T18:24:33.598Z,35.15
2022-12-20T18:27:09.232Z,35.26
2022-12-20T18:29:44.046Z,35.42
2022-12-20T18:32:25.407Z,35.26
2022-12-20T18:35:01.762Z,35.25
2022-12-20T18:37:36.096Z,35.22
2022-12-20T18:40:07.304Z,35.41
2022-12-20T18:42:40.422Z,35.25
2022-12-20T18:45:17.362Z,35.25
2022-12-20T18:47:56.448Z,34.93
2022-12-20T18:50:35.552Z,35.17
2022-12-20T18:53:19.302Z,35.29
2022-12-20T18:55:54.443Z,35.13
2022-12-20T18:58:24.832Z,35.06
2022-12-20T19:01:06.268Z,35.11
2022-12-20T19:03:34.136Z,35.42
2022-12-20T19:06:10.868Z,34.81
2022-12-20T19:08:46.487Z,35.24
2022-12-20T19:11:23.205Z,34.97
2022-12-20T19:14:04.429Z,35.31
2022-12-20T19:16:42.509Z,35.01
2022-12-20T19:19:15.440Z,35.35
2022-12-20T19:21:48.389Z,34.96
2022-12-20T19:24:21.659Z,35.08
2022-12-20T19:26:51.631Z,34.93
2022-12-20T19:29:27.221Z,35.04
2022-12-20T19:32:02.827Z,34.96
2022-12-20T19:34:39.115Z,34.88
2022-12-20T19:37:13.230Z,35.00
2022-12-20T19:39:53.861Z,34.85
2022-12-20T19:42:30.128Z,35.00
2022-12-20T19:45:03.729Z,35.04
2022-12-20T19:47:46.027Z,34.91
2022-12-20T19:50:27.824Z,35.23
2022-12-20T19:53:05.120Z,35.07
2022-12-20T19:55:39.283Z,34.96
2022-12-20T19:58:19.678Z,35.10
2022-12-20T20:00:57.224Z,34.94
2022-12-20T20:03:33.668Z,35.02
2022-12-20T20:06:14.270Z,34.89
2022-12-20T20:08:45.756Z,35.00
2022-12-20T20:11:22.194Z,35.08
2022-12-20T20:14:03.310Z,34.87
2022-12-20T20:16:37.287Z,34.86
2022-12-20T20:19:07.474Z,35.06
2022-12-20T20:21:41.275Z,34.76
2022-12-20T20:24:19.212Z,35.17
2022-12-20T20:26:52.500Z,34.99
2022-12-20T20:29:28.426Z,34.66
2022-12-20T20:32:07.692Z,35.11
2022-12-20T20:34:45.944Z,34.95
2022-12-20T20:37:16.868Z,34.94
2022-12-20T20:39:55.723Z,35.00
2022-12-20T20:42:31.332Z,35.15
2022-12-20T20:45:07.446Z,34.87
2022-12-20T20:47:44.163Z,34.90
2022-12-20T20:50:23.865Z,34.67
2022-12-20T20:52:55.973Z,34.82
2022-12-20T20:55:26.132Z,34.83
2022-12-20T20:57:59.057Z,34.95
2022-12-20T21:00:32.621Z,34.94
2022-12-20T21:03:05.639Z,35.11
2022-12-20T21:06:14.035Z,35.05
2022-12-20T21:08:35.147Z,34.75
2022-12-20T21:11:09.485Z,35.12
2022-12-20T21:13:47.074Z,34.90
2022-12-20T21:16:20.943Z,34.99
2022-12-20T21:19:03.207Z,35.17
2022-12-20T21:21:41.512Z,34.91
2022-12-20T21:24:14.203Z,35.17
2022-12-20T21:26:44.158Z,34.93
2022-12-20T21:29:16.306Z,35.05
2022-12-20T21:31:50.081Z,34.77
2022-12-20T21:34:28.272Z,34.98
2022-12-20T21:37:07.345Z,34.95
2022-12-20T21:39:46.123Z,34.82
2022-12-20T21:42:20.221Z,35.20
2022-12-20T21:44:56.237Z,34.96
2022-12-20T21:47:34.659Z,34.78
2022-12-20T21:50:09.835Z,34.64
2022-12-20T21:52:48.479Z,34.52
2022-12-20T21:55:22.350Z,34.89
2022-12-20T21:58:01.410Z,34.81
2022-12-20T22:00:40.129Z,34.98
2022-12-20T22:03:15.818Z,34.71
2022-12-20T22:05:50.387Z,34.84
2022-12-20T22:08:35.347Z,35.18
2022-12-20T22:11:20.819Z,34.84
2022-12-20T22:13:57.548Z,34.88
2022-12-20T22:16:34.900Z,35.14
2022-12-20T22:19:06.432Z,34.83
2022-12-20T22:21:45.290Z,34.88
2022-12-20T22:24:24.027Z,34.87
2022-12-20T22:26:57.000Z,35.07
2022-12-20T22:29:32.317Z,34.86
2022-12-20T22:32:04.935Z,34.80
2022-12-20T22:34:37.891Z,34.86
2022-12-20T22:37:11.344Z,34.77
2022-12-20T22:39:47.119Z,34.72
2022-12-20T22:42:26.066Z,35.02
2022-12-20T22:44:58.911Z,34.76
2022-12-20T22:47:34.607Z,34.99
2022-12-20T22:50:04.854Z,34.71
2022-12-20T22:52:41.081Z,34.79
2022-12-20T22:55:18.514Z,34.79
2022-12-20T22:57:51.522Z,34.84
2022-12-20T23:00:24.800Z,35.07
2022-12-20T23:02:59.474Z,35.04
2022-12-20T23:05:31.734Z,35.09
2022-12-20T23:08:07.521Z,35.10
2022-12-20T23:10:59.085Z,34.89
2022-12-20T23:13:53.532Z,34.91
2022-12-20T23:16:28.970Z,34.76
2022-12-20T23:19:03.257Z,34.88
2022-12-20T23:21:59.216Z,34.92
2022-12-20T23:24:34.392Z,34.72
2022-12-20T23:27:10.350Z,34.67
2022-12-20T23:29:37.873Z,34.79
2022-12-20T23:32:08.828Z,34.62
2022-12-20T23:34:41.587Z,34.73
2022-12-20T23:37:11.938Z,34.87
2022-12-20T23:39:44.767Z,34.95
2022-12-20T23:42:23.505Z,34.70
2022-12-20T23:45:03.453Z,34.93
2022-12-20T23:47:50.362Z,34.93
2022-12-20T23:50:28.272Z,34.81
2022-12-20T23:52:58.665Z,34.84
2022-12-20T23:55:34.526Z,35.12
2022-12-20T23:58:05.372Z,34.92
